createdAt,value
2023-04-24T00:00:23.350Z,45.89
2023-04-24T00:01:27.275Z,46.21
2023-04-24T00:02:29.993Z,46.22
2023-04-24T00:03:32.566Z,46.17
2023-04-24T00:04:35.400Z,46.03
2023-04-24T00:05:37.956Z,46.33
2023-04-24T00:06:40.256Z,46.40
2023-04-24T00:07:42.578Z,46.23
2023-04-24T00:08:44.805Z,46.26
2023-04-24T00:09:47.557Z,46.53
2023-04-24T00:10:50.528Z,46.69
2023-04-24T00:11:53.318Z,46.53
2023-04-24T00:12:55.450Z,46.59
2023-04-24T00:13:57.802Z,46.67
2023-04-24T00:15:00.401Z,46.78
2023-04-24T00:16:02.773Z,46.83
2023-04-24T00:17:05.149Z,46.77
2023-04-24T00:18:07.621Z,46.79
2023-04-24T00:19:10.022Z,46.79
2023-04-24T00:20:12.889Z,46.99
2023-04-24T00:21:15.968Z,46.69
2023-04-24T00:22:19.750Z,46.72
2023-04-24T00:23:22.320Z,46.63
2023-04-24T00:24:24.563Z,46.46
2023-04-24T00:25:26.826Z,46.41
2023-04-24T00:26:29.338Z,46.28
2023-04-24T00:27:31.643Z,46.17
2023-04-24T00:28:34.142Z,46.23
2023-04-24T00:29:36.492Z,46.18
2023-04-24T00:30:38.937Z,46.11
2023-04-24T00:31:43.282Z,46.03
2023-04-24T00:32:45.697Z,45.96
2023-04-24T00:33:48.083Z,45.91
2023-04-24T00:34:50.777Z,45.90
2023-04-24T00:35:53.236Z,45.91
2023-04-24T00:36:55.711Z,45.72
2023-04-24T00:37:57.974Z,45.69
2023-04-24T00:39:00.563Z,45.70
2023-04-24T00:40:03.357Z,45.70
2023-04-24T00:41:06.039Z,45.67
2023-04-24T00:42:08.233Z,45.61
2023-04-24T00:43:10.659Z,45.59
2023-04-24T00:44:13.043Z,45.73
2023-04-24T00:45:15.413Z,45.62
2023-04-24T00:46:18.458Z,45.55
2023-04-24T00:47:20.900Z,45.68
2023-04-24T00:48:24.981Z,45.69
2023-04-24T00:49:27.350Z,45.71
2023-04-24T00:50:30.316Z,45.75
2023-04-24T00:51:33.398Z,45.67
2023-04-24T00:52:35.885Z,45.53
2023-04-24T00:53:38.929Z,45.36
2023-04-24T00:54:41.271Z,45.13
2023-04-24T00:55:43.476Z,45.02
2023-04-24T00:56:46.524Z,44.86
2023-04-24T00:57:49.829Z,44.81
2023-04-24T00:58:52.922Z,44.72
2023-04-24T00:59:55.174Z,44.71
2023-04-24T01:00:57.765Z,44.67
2023-04-24T01:02:00.628Z,44.62
2023-04-24T01:03:05.328Z,44.57
2023-04-24T01:04:10.300Z,44.55
2023-04-24T01:05:14.788Z,44.51
2023-04-24T01:06:17.410Z,44.53
2023-04-24T01:07:23.038Z,44.47
2023-04-24T01:08:27.481Z,44.57
2023-04-24T01:09:30.290Z,44.57
2023-04-24T01:10:35.711Z,44.57
2023-04-24T01:11:38.109Z,44.55
2023-04-24T01:12:41.150Z,44.51
2023-04-24T01:13:43.545Z,44.56
2023-04-24T01:14:47.039Z,44.54
2023-04-24T01:15:52.182Z,44.63
2023-04-24T01:16:55.134Z,44.64
2023-04-24T01:17:57.841Z,44.72
2023-04-24T01:19:00.213Z,44.68
2023-04-24T01:20:02.919Z,44.60
2023-04-24T01:21:08.841Z,44.53
2023-04-24T01:22:15.572Z,44.42
2023-04-24T01:23:17.990Z,44.45
2023-04-24T01:24:20.506Z,44.25
2023-04-24T01:25:23.573Z,44.37
2023-04-24T01:26:26.495Z,44.46
2023-04-24T01:27:28.987Z,44.53
2023-04-24T01:28:31.342Z,44.34
2023-04-24T01:29:34.264Z,44.26
2023-04-24T01:30:36.724Z,44.22
2023-04-24T01:31:40.209Z,44.10
2023-04-24T01:32:43.736Z,44.05
2023-04-24T01:33:46.032Z,44.09
2023-04-24T01:34:49.422Z,44.10
2023-04-24T01:35:51.788Z,44.00
2023-04-24T01:36:54.507Z,44.05
2023-04-24T01:37:56.815Z,44.03
2023-04-24T01:39:00.414Z,43.82
2023-04-24T01:40:03.022Z,43.82
2023-04-24T01:41:06.071Z,43.71
2023-04-24T01:42:08.298Z,43.36
2023-04-24T01:43:10.491Z,43.24
2023-04-24T01:44:12.820Z,43.28
2023-04-24T01:45:15.543Z,43.27
2023-04-24T01:46:18.074Z,43.11
2023-04-24T01:47:20.374Z,43.10
2023-04-24T01:48:23.451Z,43.20
2023-04-24T01:49:25.848Z,43.26
2023-04-24T01:50:28.285Z,43.24
2023-04-24T01:51:31.265Z,43.02
2023-04-24T01:52:34.234Z,43.25
2023-04-24T01:53:36.538Z,43.39
2023-04-24T01:54:38.879Z,43.51
2023-04-24T01:55:41.786Z,43.61
2023-04-24T01:56:44.321Z,43.68
2023-04-24T01:57:47.122Z,43.68
2023-04-24T01:58:51.282Z,43.64
2023-04-24T01:59:54.644Z,43.64
2023-04-24T02:00:57.728Z,43.73
2023-04-24T02:02:00.109Z,43.62
2023-04-24T02:03:02.470Z,43.61
2023-04-24T02:04:06.859Z,43.62
2023-04-24T02:05:10.825Z,43.56
2023-04-24T02:06:14.098Z,43.56
2023-04-24T02:07:16.889Z,43.63
2023-04-24T02:08:19.637Z,43.66
2023-04-24T02:09:21.945Z,43.63
2023-04-24T02:10:24.784Z,43.50
2023-04-24T02:11:27.016Z,43.54
2023-04-24T02:12:29.610Z,43.55
2023-04-24T02:13:32.066Z,43.59
2023-04-24T02:14:34.485Z,43.64
2023-04-24T02:15:36.828Z,43.75
2023-04-24T02:16:39.536Z,43.66
2023-04-24T02:17:41.951Z,43.70
2023-04-24T02:18:44.360Z,43.49
2023-04-24T02:19:46.691Z,43.59
2023-04-24T02:20:49.244Z,43.41
2023-04-24T02:21:51.569Z,43.52
2023-04-24T02:22:54.549Z,43.58
2023-04-24T02:23:57.726Z,43.61
2023-04-24T02:25:00.185Z,43.56
2023-04-24T02:26:02.706Z,43.79
2023-04-24T02:27:05.112Z,43.81
2023-04-24T02:28:07.410Z,43.85
2023-04-24T02:29:09.697Z,43.89
2023-04-24T02:30:13.476Z,43.88
2023-04-24T02:31:15.846Z,43.72
2023-04-24T02:32:18.256Z,43.84
2023-04-24T02:33:20.721Z,43.92
2023-04-24T02:34:23.400Z,43.89
2023-04-24T02:35:26.016Z,43.93
2023-04-24T02:36:29.095Z,43.96
2023-04-24T02:37:31.373Z,43.84
2023-04-24T02:38:33.694Z,43.80
2023-04-24T02:39:36.056Z,43.70
2023-04-24T02:40:38.444Z,43.70
2023-04-24T02:41:40.678Z,43.62
2023-04-24T02:42:44.652Z,43.50
2023-04-24T02:43:47.472Z,43.57
2023-04-24T02:44:49.884Z,43.40
2023-04-24T02:45:52.173Z,43.37
2023-04-24T02:46:54.339Z,43.28
2023-04-24T02:47:56.560Z,43.32
2023-04-24T02:48:59.264Z,43.32
2023-04-24T02:50:03.862Z,43.15
2023-04-24T02:51:06.098Z,43.19
2023-04-24T02:52:08.404Z,43.23
2023-04-24T02:53:10.770Z,43.21
2023-04-24T02:54:13.856Z,43.20
2023-04-24T02:55:16.612Z,43.16
2023-04-24T02:56:19.289Z,43.16
2023-04-24T02:57:21.662Z,43.13
2023-04-24T02:58:24.677Z,43.19
2023-04-24T02:59:28.191Z,43.20
2023-04-24T03:00:31.079Z,43.15
2023-04-24T03:01:34.413Z,42.87
2023-04-24T03:02:37.351Z,42.95
2023-04-24T03:03:41.261Z,42.98
2023-04-24T03:04:44.151Z,42.92
2023-04-24T03:05:47.294Z,42.96
2023-04-24T03:06:49.760Z,42.84
2023-04-24T03:07:51.948Z,42.93
2023-04-24T03:08:54.764Z,42.83
2023-04-24T03:09:57.676Z,42.85
2023-04-24T03:11:00.713Z,42.91
2023-04-24T03:12:03.153Z,42.95
2023-04-24T03:13:06.743Z,43.23
2023-04-24T03:14:10.331Z,43.81
2023-04-24T03:15:13.993Z,44.00
2023-04-24T03:16:16.477Z,44.05
2023-04-24T03:17:18.866Z,44.11
2023-04-24T03:18:21.140Z,44.21
2023-04-24T03:19:24.301Z,44.27
2023-04-24T03:20:34.541Z,44.27
2023-04-24T03:21:39.801Z,44.12
2023-04-24T03:22:42.531Z,44.21
2023-04-24T03:23:45.130Z,44.39
2023-04-24T03:24:47.643Z,44.42
2023-04-24T03:25:51.804Z,44.34
2023-04-24T03:26:56.388Z,44.37
2023-04-24T03:28:09.948Z,44.30
2023-04-24T03:29:16.851Z,44.26
2023-04-24T03:30:22.428Z,44.46
2023-04-24T03:31:26.526Z,44.61
2023-04-24T03:32:28.914Z,44.58
2023-04-24T03:33:31.174Z,44.66
2023-04-24T03:34:35.254Z,44.70
2023-04-24T03:35:38.682Z,44.78
2023-04-24T03:36:43.017Z,44.76
2023-04-24T03:37:45.410Z,44.85
2023-04-24T03:38:55.543Z,44.77
2023-04-24T03:40:04.071Z,44.86
2023-04-24T03:41:06.551Z,44.87
2023-04-24T03:42:16.848Z,44.77
2023-04-24T03:43:21.947Z,44.74
2023-04-24T03:44:24.222Z,44.88
2023-04-24T03:45:27.189Z,44.76
2023-04-24T03:46:29.728Z,44.81
2023-04-24T03:47:34.003Z,44.63
2023-04-24T03:48:36.981Z,44.70
2023-04-24T03:49:39.312Z,44.81
2023-04-24T03:50:41.884Z,45.02
2023-04-24T03:51:45.614Z,45.02
2023-04-24T03:52:50.892Z,45.07
2023-04-24T03:53:56.119Z,44.81
2023-04-24T03:54:59.258Z,45.12
2023-04-24T03:56:03.962Z,44.86
2023-04-24T03:57:08.411Z,45.01
2023-04-24T03:58:13.565Z,45.10
2023-04-24T03:59:15.841Z,45.21
2023-04-24T04:00:20.106Z,45.36
2023-04-24T04:01:23.826Z,45.44
2023-04-24T04:02:28.208Z,45.46
2023-04-24T04:03:31.045Z,45.08
2023-04-24T04:04:33.560Z,44.94
2023-04-24T04:05:37.142Z,44.88
2023-04-24T04:06:39.506Z,45.11
2023-04-24T04:07:42.902Z,45.17
2023-04-24T04:08:45.326Z,45.25
2023-04-24T04:09:47.654Z,45.33
2023-04-24T04:10:50.626Z,45.42
2023-04-24T04:11:53.461Z,45.44
2023-04-24T04:12:55.887Z,45.40
2023-04-24T04:13:58.254Z,45.19
2023-04-24T04:15:00.798Z,45.13
2023-04-24T04:17:18.489Z,45.23
2023-04-24T04:18:21.401Z,45.48
2023-04-24T04:19:24.154Z,45.74
2023-04-24T04:20:28.962Z,46.18
2023-04-24T04:21:31.852Z,46.52
2023-04-24T04:23:54.197Z,46.64
2023-04-24T04:24:58.436Z,47.29
2023-04-24T04:27:14.112Z,47.44
2023-04-24T04:28:22.004Z,47.09
2023-04-24T04:29:24.772Z,46.84
2023-04-24T04:30:27.766Z,46.62
2023-04-24T04:31:31.969Z,46.51
2023-04-24T04:32:36.378Z,46.63
2023-04-24T04:33:39.289Z,46.41
2023-04-24T04:34:42.390Z,46.38
2023-04-24T04:35:47.068Z,46.33
2023-04-24T04:36:49.816Z,46.30
2023-04-24T04:39:13.745Z,46.21
2023-04-24T04:41:44.972Z,46.17
2023-04-24T04:44:14.144Z,46.02
2023-04-24T04:45:17.176Z,46.11
2023-04-24T04:46:27.285Z,46.05
2023-04-24T04:48:53.894Z,45.81
2023-04-24T04:49:56.592Z,45.62
2023-04-24T04:51:05.380Z,45.56
2023-04-24T04:52:07.985Z,45.47
2023-04-24T04:53:18.679Z,45.43
2023-04-24T04:54:21.256Z,45.23
2023-04-24T04:55:24.669Z,45.21
2023-04-24T04:56:32.051Z,45.13
2023-04-24T04:57:35.724Z,45.07
2023-04-24T04:58:39.230Z,45.07
2023-04-24T04:59:45.411Z,45.12
2023-04-24T05:00:49.417Z,45.07
2023-04-24T05:01:54.140Z,45.26
2023-04-24T05:03:05.875Z,45.25
2023-04-24T05:04:02.963Z,45.38
2023-04-24T05:05:06.927Z,45.44
2023-04-24T05:06:10.138Z,45.95
2023-04-24T05:07:14.952Z,46.07
2023-04-24T05:08:27.253Z,46.37
2023-04-24T05:09:23.885Z,46.31
2023-04-24T05:10:28.215Z,46.17
2023-04-24T05:11:31.796Z,46.47
2023-04-24T05:12:35.037Z,46.40
2023-04-24T05:13:40.944Z,46.34
2023-04-24T05:14:44.254Z,45.88
2023-04-24T05:15:48.755Z,45.71
2023-04-24T05:16:51.699Z,45.80
2023-04-24T05:17:57.466Z,45.76
2023-04-24T05:19:00.704Z,45.66
2023-04-24T05:20:06.698Z,45.16
2023-04-24T05:21:09.433Z,44.82
2023-04-24T05:22:12.610Z,44.69
2023-04-24T05:23:17.241Z,44.73
2023-04-24T05:24:21.924Z,44.37
2023-04-24T05:25:26.176Z,44.14
2023-04-24T05:26:30.557Z,44.47
2023-04-24T05:27:34.450Z,44.26
2023-04-24T05:28:38.423Z,44.07
2023-04-24T05:29:42.779Z,43.68
2023-04-24T05:30:50.128Z,43.68
2023-04-24T05:31:52.935Z,43.79
2023-04-24T05:32:57.206Z,43.65
2023-04-24T05:33:59.495Z,43.54
2023-04-24T05:35:01.940Z,43.16
2023-04-24T05:37:22.798Z,43.04
2023-04-24T05:38:25.318Z,42.24
2023-04-24T05:39:27.669Z,42.18
2023-04-24T05:40:31.056Z,41.96
2023-04-24T05:41:33.413Z,41.74
2023-04-24T05:42:36.802Z,40.88
2023-04-24T05:43:39.212Z,41.08
2023-04-24T05:44:41.586Z,40.78
2023-04-24T05:45:46.979Z,40.64
2023-04-24T05:46:50.673Z,40.53
2023-04-24T05:47:53.880Z,40.08
2023-04-24T05:48:56.256Z,39.87
2023-04-24T05:49:58.606Z,39.55
2023-04-24T05:51:06.539Z,39.57
2023-04-24T05:52:09.414Z,39.69
2023-04-24T05:53:12.389Z,39.79
2023-04-24T05:54:15.750Z,40.02
2023-04-24T05:55:18.168Z,40.09
2023-04-24T05:56:21.328Z,40.36
2023-04-24T05:57:26.891Z,40.47
2023-04-24T05:58:33.739Z,40.45
2023-04-24T05:59:38.423Z,40.50
2023-04-24T06:00:41.322Z,40.70
2023-04-24T06:01:43.897Z,40.80
2023-04-24T06:02:48.450Z,40.92
2023-04-24T06:03:51.605Z,40.66
2023-04-24T06:04:55.032Z,40.52
2023-04-24T06:05:57.909Z,40.48
2023-04-24T06:07:02.271Z,40.63
2023-04-24T06:08:05.114Z,40.71
2023-04-24T06:09:09.329Z,40.80
2023-04-24T06:10:12.574Z,40.84
2023-04-24T06:11:19.993Z,40.85
2023-04-24T06:12:23.719Z,40.76
2023-04-24T06:13:28.552Z,40.70
2023-04-24T06:14:41.988Z,40.14
2023-04-24T06:15:53.295Z,40.23
2023-04-24T06:16:57.832Z,40.52
2023-04-24T06:18:04.896Z,40.80
2023-04-24T06:19:07.731Z,40.95
2023-04-24T06:20:11.928Z,41.10
2023-04-24T06:21:14.212Z,40.87
2023-04-24T06:22:16.535Z,40.82
2023-04-24T06:23:18.877Z,40.81
2023-04-24T06:24:21.609Z,40.46
2023-04-24T06:25:26.799Z,40.66
2023-04-24T06:26:29.301Z,40.89
2023-04-24T06:27:31.601Z,40.75
2023-04-24T06:28:33.851Z,40.78
2023-04-24T06:29:36.953Z,40.80
2023-04-24T06:30:43.157Z,40.79
2023-04-24T06:31:46.047Z,40.69
2023-04-24T06:32:52.307Z,40.72
2023-04-24T06:33:54.798Z,40.80
2023-04-24T06:34:59.079Z,40.91
2023-04-24T06:36:02.017Z,40.87
2023-04-24T06:37:04.968Z,41.04
2023-04-24T06:38:07.371Z,40.76
2023-04-24T06:39:09.739Z,40.66
2023-04-24T06:40:13.326Z,40.53
2023-04-24T06:42:33.256Z,40.07
2023-04-24T06:43:35.734Z,40.14
2023-04-24T06:44:38.094Z,39.65
2023-04-24T06:45:42.146Z,39.65
2023-04-24T06:46:46.266Z,39.96
2023-04-24T06:47:49.952Z,38.99
2023-04-24T06:48:53.377Z,39.29
2023-04-24T06:49:56.332Z,39.06
2023-04-24T06:50:59.172Z,39.11
2023-04-24T06:52:01.701Z,39.40
2023-04-24T06:53:04.861Z,39.36
2023-04-24T06:54:09.256Z,39.07
2023-04-24T06:55:11.750Z,39.18
2023-04-24T06:56:17.029Z,38.89
2023-04-24T06:57:22.495Z,39.15
2023-04-24T06:58:26.221Z,39.19
2023-04-24T06:59:28.794Z,39.00
2023-04-24T07:00:34.307Z,38.86
2023-04-24T07:01:36.743Z,39.22
2023-04-24T07:02:39.486Z,39.35
2023-04-24T07:03:42.375Z,39.52
2023-04-24T07:04:45.469Z,39.49
2023-04-24T07:05:48.509Z,39.41
2023-04-24T07:06:51.129Z,39.48
2023-04-24T07:07:53.496Z,39.23
2023-04-24T07:08:55.834Z,39.61
2023-04-24T07:09:58.563Z,39.71
2023-04-24T07:11:01.113Z,39.65
2023-04-24T07:12:03.756Z,39.59
2023-04-24T07:13:06.164Z,39.95
2023-04-24T07:14:08.558Z,40.17
2023-04-24T07:15:26.372Z,39.69
2023-04-24T07:16:26.332Z,39.08
2023-04-24T07:17:28.752Z,38.89
2023-04-24T07:18:31.281Z,38.70
2023-04-24T07:19:35.127Z,37.84
2023-04-24T07:21:53.137Z,37.48
2023-04-24T07:22:55.995Z,37.34
2023-04-24T07:24:00.130Z,36.33
2023-04-24T07:25:02.617Z,36.19
2023-04-24T07:26:05.533Z,36.38
2023-04-24T07:27:11.145Z,36.28
2023-04-24T07:28:13.625Z,35.39
2023-04-24T07:29:16.018Z,34.96
2023-04-24T07:30:18.734Z,34.91
2023-04-24T07:31:21.728Z,35.29
2023-04-24T07:32:24.873Z,35.03
2023-04-24T07:33:27.572Z,33.99
2023-04-24T07:34:29.997Z,33.85
2023-04-24T07:35:34.181Z,33.30
2023-04-24T07:36:36.993Z,32.65
2023-04-24T07:37:39.390Z,33.15
2023-04-24T07:38:42.997Z,32.50
2023-04-24T07:39:45.656Z,31.92
2023-04-24T07:40:49.956Z,31.85
2023-04-24T07:41:52.633Z,32.13
2023-04-24T07:42:55.086Z,32.35
2023-04-24T07:43:57.409Z,31.36
2023-04-24T07:44:59.840Z,30.84
2023-04-24T07:46:02.998Z,30.90
2023-04-24T07:47:05.368Z,30.81
2023-04-24T07:48:08.147Z,30.57
2023-04-24T07:49:13.753Z,30.39
2023-04-24T07:50:16.031Z,30.79
2023-04-24T07:51:26.632Z,30.10
2023-04-24T07:52:28.960Z,29.72
2023-04-24T07:53:31.902Z,29.87
2023-04-24T07:54:34.664Z,29.11
2023-04-24T07:55:40.093Z,29.52
2023-04-24T07:56:45.902Z,29.43
2023-04-24T07:57:49.088Z,28.80
2023-04-24T07:58:54.643Z,28.64
2023-04-24T07:59:57.142Z,28.80
2023-04-24T08:01:01.910Z,28.78
2023-04-24T08:02:05.150Z,29.08
2023-04-24T08:03:07.426Z,29.35
2023-04-24T08:04:11.012Z,28.75
2023-04-24T08:05:16.019Z,28.75
2023-04-24T08:06:19.036Z,28.94
2023-04-24T08:07:23.804Z,29.01
2023-04-24T08:08:26.345Z,29.18
2023-04-24T08:10:47.782Z,28.76
2023-04-24T08:11:50.927Z,28.98
2023-04-24T08:12:53.977Z,28.54
2023-04-24T08:13:56.720Z,28.45
2023-04-24T08:14:58.887Z,29.09
2023-04-24T08:16:02.349Z,28.52
2023-04-24T08:17:05.020Z,28.50
2023-04-24T08:18:20.039Z,28.53
2023-04-24T08:19:25.371Z,28.66
2023-04-24T08:20:28.935Z,28.52
2023-04-24T08:21:32.452Z,28.50
2023-04-24T08:22:35.088Z,28.32
2023-04-24T08:23:40.130Z,29.06
2023-04-24T08:24:44.413Z,28.91
2023-04-24T08:25:47.224Z,29.15
2023-04-24T08:26:49.946Z,29.48
2023-04-24T08:27:52.712Z,29.77
2023-04-24T08:28:56.313Z,29.77
2023-04-24T08:29:59.383Z,30.10
2023-04-24T08:31:03.933Z,29.89
2023-04-24T08:32:06.072Z,29.87
2023-04-24T08:33:08.433Z,29.77
2023-04-24T08:34:11.342Z,30.05
2023-04-24T08:35:14.093Z,29.55
2023-04-24T08:36:16.936Z,29.42
2023-04-24T08:37:19.632Z,29.90
2023-04-24T08:38:21.984Z,30.60
2023-04-24T08:39:24.376Z,30.94
2023-04-24T08:41:53.076Z,31.09
2023-04-24T08:42:56.008Z,30.43
2023-04-24T08:44:00.926Z,30.02
2023-04-24T08:45:03.697Z,30.17
2023-04-24T08:46:12.489Z,30.33
2023-04-24T08:47:18.739Z,30.41
2023-04-24T08:48:30.797Z,29.76
2023-04-24T08:49:31.670Z,29.82
2023-04-24T08:50:37.096Z,28.64
2023-04-24T08:51:40.225Z,29.22
2023-04-24T08:52:43.655Z,29.19
2023-04-24T08:53:46.784Z,28.97
2023-04-24T08:54:48.958Z,29.11
2023-04-24T08:55:57.535Z,29.75
2023-04-24T08:57:02.137Z,29.22
2023-04-24T08:58:07.912Z,28.71
2023-04-24T08:59:16.114Z,28.84
2023-04-24T09:00:22.422Z,28.72
2023-04-24T09:01:25.991Z,29.31
2023-04-24T09:02:28.850Z,29.25
2023-04-24T09:03:32.400Z,29.65
2023-04-24T09:04:36.119Z,29.26
2023-04-24T09:05:50.204Z,30.10
2023-04-24T09:08:07.613Z,30.54
2023-04-24T09:09:11.127Z,30.54
2023-04-24T09:10:13.940Z,30.15
2023-04-24T09:11:19.367Z,30.63
2023-04-24T09:12:22.701Z,30.66
2023-04-24T09:13:26.133Z,30.61
2023-04-24T09:14:28.768Z,30.37
2023-04-24T09:15:30.965Z,30.45
2023-04-24T09:16:36.669Z,30.67
2023-04-24T09:17:39.876Z,30.10
2023-04-24T09:18:42.667Z,30.50
2023-04-24T09:19:45.577Z,30.10
2023-04-24T09:21:07.040Z,29.76
2023-04-24T09:22:10.177Z,29.87
2023-04-24T09:23:16.082Z,30.33
2023-04-24T09:24:22.826Z,30.42
2023-04-24T09:25:35.132Z,29.68
2023-04-24T09:26:37.582Z,29.99
2023-04-24T09:27:44.205Z,29.82
2023-04-24T09:28:48.363Z,29.93
2023-04-24T09:29:57.231Z,29.35
2023-04-24T09:32:20.443Z,29.12
2023-04-24T09:33:22.959Z,29.24
2023-04-24T09:34:27.087Z,29.85
2023-04-24T09:35:29.307Z,29.56
2023-04-24T09:36:40.835Z,29.29
2023-04-24T09:37:45.595Z,29.60
2023-04-24T09:38:47.875Z,29.16
2023-04-24T09:40:10.292Z,29.24
2023-04-24T09:41:14.437Z,29.33
2023-04-24T09:42:18.253Z,29.34
2023-04-24T09:43:21.107Z,29.23
2023-04-24T09:44:26.008Z,29.45
2023-04-24T09:45:30.991Z,29.42
2023-04-24T09:46:34.492Z,29.50
2023-04-24T09:47:39.142Z,29.39
2023-04-24T09:48:42.688Z,29.43
2023-04-24T09:49:45.346Z,29.43
2023-04-24T09:50:49.968Z,28.70
2023-04-24T09:52:09.117Z,28.67
2023-04-24T09:53:11.953Z,28.70
2023-04-24T09:55:34.406Z,29.47
2023-04-24T09:56:36.654Z,30.00
2023-04-24T09:57:50.304Z,29.87
2023-04-24T09:58:52.592Z,29.36
2023-04-24T09:59:55.784Z,29.26
2023-04-24T10:00:58.565Z,29.29
2023-04-24T10:02:00.877Z,29.57
2023-04-24T10:03:05.408Z,29.63
2023-04-24T10:04:19.095Z,29.75
2023-04-24T10:05:33.696Z,29.61
2023-04-24T10:06:36.586Z,30.02
2023-04-24T10:07:39.017Z,29.71
2023-04-24T10:08:41.710Z,30.37
2023-04-24T10:09:44.051Z,30.54
2023-04-24T10:10:46.974Z,30.88
2023-04-24T10:11:51.597Z,30.72
2023-04-24T10:12:54.076Z,30.83
2023-04-24T10:13:56.236Z,30.85
2023-04-24T10:16:10.441Z,30.63
2023-04-24T10:17:13.980Z,30.83
2023-04-24T10:18:16.885Z,30.98
2023-04-24T10:20:30.392Z,31.60
2023-04-24T10:21:34.218Z,31.33
2023-04-24T10:22:37.519Z,31.53
2023-04-24T10:23:40.583Z,31.22
2023-04-24T10:24:47.053Z,31.20
2023-04-24T10:25:50.478Z,31.57
2023-04-24T10:26:53.212Z,31.58
2023-04-24T10:27:56.291Z,31.54
2023-04-24T10:28:59.014Z,31.72
2023-04-24T10:30:03.553Z,31.69
2023-04-24T10:31:06.380Z,31.93
2023-04-24T10:32:09.219Z,31.96
2023-04-24T10:33:12.640Z,32.14
2023-04-24T10:34:16.516Z,31.59
2023-04-24T10:35:19.931Z,32.13
2023-04-24T10:36:23.576Z,31.68
2023-04-24T10:37:27.103Z,31.54
2023-04-24T10:38:29.645Z,32.04
2023-04-24T10:39:32.200Z,32.58
2023-04-24T10:40:38.960Z,31.49
2023-04-24T10:42:52.283Z,32.10
2023-04-24T10:45:23.443Z,32.12
2023-04-24T10:47:41.499Z,32.20
2023-04-24T10:48:44.946Z,32.24
2023-04-24T10:49:48.847Z,32.48
2023-04-24T10:50:54.398Z,31.47
2023-04-24T10:52:02.535Z,31.83
2023-04-24T10:54:32.602Z,31.68
2023-04-24T10:55:42.315Z,31.97
2023-04-24T10:56:45.030Z,32.39
2023-04-24T10:58:04.652Z,32.15
2023-04-24T10:59:08.560Z,32.45
2023-04-24T11:00:22.462Z,32.57
2023-04-24T11:01:27.825Z,32.42
2023-04-24T11:02:38.006Z,32.61
2023-04-24T11:03:45.675Z,33.10
2023-04-24T11:04:52.025Z,33.30
2023-04-24T11:07:30.409Z,32.61
2023-04-24T11:08:40.622Z,33.21
2023-04-24T11:09:46.477Z,32.92
2023-04-24T11:10:58.452Z,32.92
2023-04-24T11:12:08.896Z,32.52
2023-04-24T11:13:12.697Z,32.97
2023-04-24T11:14:16.137Z,33.20
2023-04-24T11:15:18.379Z,32.87
2023-04-24T11:16:23.535Z,33.17
2023-04-24T11:17:39.344Z,32.98
2023-04-24T11:18:43.791Z,32.91
2023-04-24T11:19:49.718Z,32.96
2023-04-24T11:20:55.064Z,33.23
2023-04-24T11:22:00.030Z,33.16
2023-04-24T11:23:04.412Z,33.47
2023-04-24T11:24:27.891Z,33.55
2023-04-24T11:25:31.987Z,33.22
2023-04-24T11:26:37.360Z,33.43
2023-04-24T11:27:41.395Z,33.52
2023-04-24T11:28:48.796Z,33.50
2023-04-24T11:30:00.440Z,33.41
2023-04-24T11:31:38.798Z,33.28
2023-04-24T11:32:43.159Z,33.29
2023-04-24T11:33:46.839Z,32.79
2023-04-24T11:34:52.095Z,33.04
2023-04-24T11:35:55.460Z,32.97
2023-04-24T11:36:58.037Z,32.96
2023-04-24T11:39:10.675Z,33.14
2023-04-24T11:40:14.766Z,32.91
2023-04-24T11:41:17.076Z,32.92
2023-04-24T11:42:21.037Z,32.83
2023-04-24T11:43:23.722Z,32.72
2023-04-24T11:44:25.948Z,33.17
2023-04-24T11:45:30.767Z,33.02
2023-04-24T11:46:33.597Z,32.22
2023-04-24T11:47:40.623Z,32.29
2023-04-24T11:48:47.990Z,32.67
2023-04-24T11:49:51.869Z,32.59
2023-04-24T11:50:54.287Z,32.50
2023-04-24T11:51:59.741Z,33.09
2023-04-24T11:53:01.318Z,32.83
2023-04-24T11:54:07.161Z,33.25
2023-04-24T11:55:18.886Z,33.24
2023-04-24T11:56:25.550Z,33.44
2023-04-24T11:57:27.853Z,33.53
2023-04-24T11:58:41.389Z,33.54
2023-04-24T11:59:44.000Z,33.36
2023-04-24T12:00:46.693Z,33.25
2023-04-24T12:01:50.611Z,33.52
2023-04-24T12:03:08.853Z,34.13
2023-04-24T12:04:11.642Z,33.89
2023-04-24T12:05:28.115Z,33.84
2023-04-24T12:06:30.969Z,33.82
2023-04-24T12:07:41.394Z,33.42
2023-04-24T12:08:48.403Z,33.31
2023-04-24T12:11:08.463Z,33.43
2023-04-24T12:12:13.341Z,33.59
2023-04-24T12:13:15.771Z,33.24
2023-04-24T12:14:17.948Z,33.31
2023-04-24T12:15:21.745Z,33.61
2023-04-24T12:16:27.112Z,33.69
2023-04-24T12:18:48.138Z,33.32
2023-04-24T12:19:50.464Z,33.47
2023-04-24T12:20:53.673Z,33.44
2023-04-24T12:22:03.360Z,33.48
2023-04-24T12:23:05.573Z,33.73
2023-04-24T12:24:07.868Z,33.80
2023-04-24T12:25:11.216Z,33.51
2023-04-24T12:27:36.772Z,33.45
2023-04-24T12:28:39.741Z,33.48
2023-04-24T12:31:07.505Z,33.50
2023-04-24T12:32:18.124Z,33.61
2023-04-24T12:33:21.735Z,33.80
2023-04-24T12:34:26.876Z,33.77
2023-04-24T12:35:30.976Z,33.91
2023-04-24T12:36:37.813Z,33.81
2023-04-24T12:37:44.135Z,34.15
2023-04-24T12:38:54.005Z,34.22
2023-04-24T12:41:27.034Z,33.41
2023-04-24T12:42:35.050Z,33.24
2023-04-24T12:43:38.038Z,32.96
2023-04-24T12:44:41.008Z,32.52
2023-04-24T12:45:43.983Z,32.64
2023-04-24T12:46:47.173Z,32.92
2023-04-24T12:47:49.664Z,32.98
2023-04-24T12:50:18.382Z,33.16
2023-04-24T12:51:20.909Z,33.40
2023-04-24T12:52:24.659Z,33.52
2023-04-24T12:53:27.213Z,33.40
2023-04-24T12:54:34.533Z,33.48
2023-04-24T12:55:39.815Z,33.29
2023-04-24T12:56:42.487Z,33.25
2023-04-24T12:57:48.861Z,33.45
2023-04-24T12:58:51.126Z,33.19
2023-04-24T13:00:00.610Z,33.53
2023-04-24T13:01:06.119Z,33.19
2023-04-24T13:02:10.681Z,32.78
2023-04-24T13:03:14.056Z,33.21
2023-04-24T13:04:17.163Z,32.87
2023-04-24T13:05:20.120Z,33.08
2023-04-24T13:06:22.635Z,33.27
2023-04-24T13:07:25.823Z,33.34
2023-04-24T13:08:27.916Z,33.76
2023-04-24T13:09:31.185Z,34.28
2023-04-24T13:10:34.648Z,34.20
2023-04-24T13:11:36.880Z,33.96
2023-04-24T13:12:39.150Z,34.05
2023-04-24T13:13:41.967Z,34.63
2023-04-24T13:14:45.328Z,33.81
2023-04-24T13:15:47.680Z,34.15
2023-04-24T13:16:50.529Z,33.73
2023-04-24T13:17:53.696Z,34.31
2023-04-24T13:18:56.982Z,34.19
2023-04-24T13:20:00.312Z,33.85
2023-04-24T13:22:18.589Z,34.40
2023-04-24T13:23:21.224Z,34.18
2023-04-24T13:24:26.973Z,34.13
2023-04-24T13:25:32.761Z,33.67
2023-04-24T13:26:35.295Z,33.66
2023-04-24T13:27:41.027Z,33.68
2023-04-24T13:28:46.080Z,33.42
2023-04-24T13:29:48.249Z,33.29
2023-04-24T13:30:52.297Z,33.39
2023-04-24T13:31:58.927Z,33.58
2023-04-24T13:33:01.395Z,33.69
2023-04-24T13:34:06.767Z,34.02
2023-04-24T13:35:09.153Z,34.00
2023-04-24T13:36:11.939Z,33.95
2023-04-24T13:37:14.331Z,34.14
2023-04-24T13:38:16.620Z,34.01
2023-04-24T13:39:18.823Z,34.21
2023-04-24T13:40:21.317Z,34.01
2023-04-24T13:41:23.533Z,34.13
2023-04-24T13:42:25.713Z,33.74
2023-04-24T13:43:28.334Z,34.01
2023-04-24T13:44:30.503Z,34.31
2023-04-24T13:45:32.776Z,34.10
2023-04-24T13:46:35.638Z,34.17
2023-04-24T13:47:38.180Z,34.04
2023-04-24T13:48:41.106Z,33.74
2023-04-24T13:49:45.203Z,33.91
2023-04-24T13:50:47.653Z,33.68
2023-04-24T13:51:49.918Z,33.69
2023-04-24T13:52:52.097Z,33.54
2023-04-24T13:53:56.561Z,33.69
2023-04-24T13:54:58.611Z,33.32
2023-04-24T13:56:01.106Z,33.20
2023-04-24T13:57:04.584Z,33.49
2023-04-24T13:58:07.520Z,33.43
2023-04-24T13:59:12.890Z,33.02
2023-04-24T14:00:16.741Z,33.17
2023-04-24T14:01:19.092Z,33.42
2023-04-24T14:02:21.945Z,33.35
2023-04-24T14:03:24.995Z,32.78
2023-04-24T14:05:50.417Z,33.68
2023-04-24T14:06:52.761Z,33.80
2023-04-24T14:07:55.560Z,33.75
2023-04-24T14:08:58.027Z,34.03
2023-04-24T14:10:03.229Z,34.42
2023-04-24T14:11:05.742Z,34.41
2023-04-24T14:12:11.288Z,34.41
2023-04-24T14:13:13.832Z,34.61
2023-04-24T14:15:33.068Z,34.59
2023-04-24T14:16:35.673Z,34.63
2023-04-24T14:17:52.184Z,35.02
2023-04-24T14:18:54.341Z,34.87
2023-04-24T14:19:56.684Z,34.85
2023-04-24T14:20:59.883Z,34.91
2023-04-24T14:22:03.353Z,35.32
2023-04-24T14:23:05.694Z,35.50
2023-04-24T14:24:08.597Z,35.73
2023-04-24T14:25:10.873Z,35.60
2023-04-24T14:26:13.564Z,35.86